createdAt,value
2019-06-20T00:00:40.279Z,18.76
2019-06-20T00:03:08.511Z,18.71
2019-06-20T00:05:37.273Z,18.68
2019-06-20T00:08:05.489Z,18.65
2019-06-20T00:10:33.698Z,18.64
2019-06-20T00:13:01.927Z,18.60
2019-06-20T00:15:30.167Z,18.52
2019-06-20T00:17:58.353Z,18.45
2019-06-20T00:20:26.570Z,18.35
2019-06-20T00:22:54.852Z,18.26
2019-06-20T00:25:23.039Z,18.19
2019-06-20T00:27:51.307Z,18.11
2019-06-20T00:30:19.523Z,18.06
2019-06-20T00:32:47.723Z,18.01
2019-06-20T00:35:15.941Z,17.97
2019-06-20T00:37:44.189Z,17.95
2019-06-20T00:40:12.448Z,17.91
2019-06-20T00:42:40.618Z,17.90
2019-06-20T00:45:08.879Z,17.90
2019-06-20T00:47:37.082Z,17.93
2019-06-20T00:50:05.685Z,17.95
2019-06-20T00:52:33.883Z,17.99
2019-06-20T00:55:02.169Z,18.03
2019-06-20T00:57:30.402Z,18.08
2019-06-20T00:59:58.605Z,18.12
2019-06-20T01:02:26.816Z,18.12
2019-06-20T01:04:55.015Z,18.11
2019-06-20T01:07:23.247Z,18.11
2019-06-20T01:09:51.487Z,18.09
2019-06-20T01:12:19.719Z,18.06
2019-06-20T01:14:47.966Z,18.04
2019-06-20T01:17:16.191Z,18.03
2019-06-20T01:19:44.414Z,18.03
2019-06-20T01:22:12.632Z,18.02
2019-06-20T01:24:40.831Z,18.01
2019-06-20T01:27:09.038Z,17.97
2019-06-20T01:29:37.257Z,17.97
2019-06-20T01:32:05.469Z,17.92
2019-06-20T01:34:33.719Z,17.87
2019-06-20T01:37:01.904Z,17.83
2019-06-20T01:39:30.121Z,17.81
2019-06-20T01:41:58.333Z,17.79
2019-06-20T01:44:26.541Z,17.77
2019-06-20T01:46:54.752Z,17.75
2019-06-20T01:49:22.951Z,17.73
2019-06-20T01:51:51.174Z,17.70
2019-06-20T01:54:19.453Z,17.69
2019-06-20T01:56:47.670Z,17.67
2019-06-20T01:59:15.880Z,17.68
2019-06-20T02:01:44.089Z,17.68
2019-06-20T02:04:12.341Z,17.67
2019-06-20T02:06:40.529Z,17.64
2019-06-20T02:09:08.814Z,17.62
2019-06-20T02:11:37.017Z,17.62
2019-06-20T02:14:07.461Z,17.61
2019-06-20T02:16:35.678Z,17.61
2019-06-20T02:19:03.879Z,17.61
2019-06-20T02:21:32.084Z,17.61
2019-06-20T02:24:00.294Z,17.58
2019-06-20T02:26:28.506Z,17.58
2019-06-20T02:28:56.712Z,17.57
2019-06-20T02:31:24.926Z,17.56
2019-06-20T02:33:53.126Z,17.56
2019-06-20T02:36:21.377Z,17.55
2019-06-20T02:38:49.534Z,17.55
2019-06-20T02:41:17.756Z,17.55
2019-06-20T02:43:46.006Z,17.55
2019-06-20T02:46:14.235Z,17.55
2019-06-20T02:48:42.427Z,17.56
2019-06-20T02:51:10.634Z,17.59
2019-06-20T02:53:38.875Z,17.61
2019-06-20T02:56:07.243Z,17.66
2019-06-20T02:58:35.438Z,17.71
2019-06-20T03:01:03.643Z,17.77
2019-06-20T03:03:31.847Z,17.83
2019-06-20T03:06:00.052Z,17.89
2019-06-20T03:08:28.324Z,17.95
2019-06-20T03:10:56.560Z,18.00
2019-06-20T03:13:24.813Z,18.06
2019-06-20T03:15:52.975Z,18.12
2019-06-20T03:18:21.187Z,18.20
2019-06-20T03:20:49.381Z,18.30
2019-06-20T03:23:17.595Z,18.80
2019-06-20T03:25:45.780Z,19.59
2019-06-20T03:28:13.988Z,20.24
2019-06-20T03:30:42.267Z,20.67
2019-06-20T03:33:13.356Z,20.91
2019-06-20T03:35:41.622Z,21.41
2019-06-20T03:38:09.852Z,21.57
2019-06-20T03:40:38.050Z,21.27
2019-06-20T03:43:06.250Z,21.02
2019-06-20T03:45:35.330Z,21.01
2019-06-20T03:48:03.555Z,21.38
2019-06-20T03:50:31.769Z,21.53
2019-06-20T03:53:02.653Z,21.02
2019-06-20T03:55:31.799Z,20.44
2019-06-20T03:58:00.743Z,19.96
2019-06-20T04:00:32.232Z,19.64
2019-06-20T04:03:00.497Z,19.41
2019-06-20T04:05:28.706Z,19.22
2019-06-20T04:07:57.252Z,19.11
2019-06-20T04:10:25.527Z,19.05
2019-06-20T04:12:53.731Z,19.04
2019-06-20T04:15:21.938Z,19.07
2019-06-20T04:20:35.879Z,19.38
2019-06-20T04:23:04.812Z,20.29
2019-06-20T04:25:33.063Z,21.23
2019-06-20T04:28:01.258Z,21.43
2019-06-20T04:30:29.501Z,21.40
2019-06-20T04:32:57.772Z,21.26
2019-06-20T04:35:25.991Z,21.12
2019-06-20T04:37:54.208Z,21.04
2019-06-20T04:40:24.078Z,20.88
2019-06-20T04:42:52.274Z,20.77
2019-06-20T04:45:34.941Z,20.87
2019-06-20T04:47:57.909Z,22.06
2019-06-20T04:50:26.115Z,22.06
2019-06-20T04:52:54.377Z,22.21
2019-06-20T04:55:22.597Z,22.29
2019-06-20T04:57:50.827Z,22.47
2019-06-20T05:00:19.040Z,22.48
2019-06-20T05:02:47.266Z,22.42
2019-06-20T05:05:15.560Z,22.58
2019-06-20T05:07:43.780Z,22.67
2019-06-20T05:10:12.002Z,22.46
2019-06-20T05:12:40.243Z,22.29
2019-06-20T05:15:08.628Z,22.17
2019-06-20T05:17:36.834Z,22.09
2019-06-20T05:20:07.987Z,22.10
2019-06-20T05:22:36.586Z,22.13
2019-06-20T05:25:05.934Z,22.33
2019-06-20T05:27:34.137Z,23.18
2019-06-20T05:30:02.373Z,23.80
2019-06-20T05:32:30.617Z,24.33
2019-06-20T05:35:02.052Z,24.55
2019-06-20T05:37:28.776Z,24.64
2019-06-20T05:39:57.054Z,24.49
2019-06-20T05:42:25.312Z,25.03
2019-06-20T05:44:53.492Z,25.92
2019-06-20T05:47:21.794Z,26.73
2019-06-20T05:49:50.013Z,27.37
2019-06-20T05:52:18.224Z,27.25
2019-06-20T05:54:46.441Z,26.55
2019-06-20T05:57:14.691Z,25.51
2019-06-20T05:59:43.438Z,24.59
2019-06-20T06:02:11.781Z,23.88
2019-06-20T06:04:40.024Z,23.35
2019-06-20T06:07:08.307Z,22.96
2019-06-20T06:09:36.557Z,22.74
2019-06-20T06:12:05.049Z,22.73
2019-06-20T06:14:33.255Z,22.65
2019-06-20T06:17:01.496Z,22.57
2019-06-20T06:19:29.745Z,22.59
2019-06-20T06:21:57.947Z,22.46
2019-06-20T06:24:26.154Z,22.17
2019-06-20T06:26:59.335Z,21.87
2019-06-20T06:29:24.336Z,21.61
2019-06-20T06:31:52.560Z,21.37
2019-06-20T06:34:22.104Z,21.17
2019-06-20T06:36:50.458Z,21.04
2019-06-20T06:39:18.674Z,20.90
2019-06-20T06:41:46.941Z,20.71
2019-06-20T06:44:15.127Z,20.51
2019-06-20T06:46:52.815Z,20.34
2019-06-20T06:49:13.290Z,20.05
2019-06-20T06:51:41.509Z,20.05
2019-06-20T06:54:09.719Z,19.98
2019-06-20T06:56:37.968Z,19.97
2019-06-20T06:59:06.175Z,20.02
2019-06-20T07:01:34.375Z,20.08
2019-06-20T07:04:02.604Z,20.11
2019-06-20T07:06:30.958Z,20.12
2019-06-20T07:08:59.196Z,20.21
2019-06-20T07:11:27.405Z,20.31
2019-06-20T07:13:55.639Z,20.39
2019-06-20T07:16:23.908Z,20.47
2019-06-20T07:18:53.117Z,20.49
2019-06-20T07:21:21.521Z,20.41
2019-06-20T07:23:49.738Z,20.29
2019-06-20T07:26:17.978Z,20.18
2019-06-20T07:28:46.193Z,20.13
2019-06-20T07:31:14.433Z,20.09
2019-06-20T07:33:42.661Z,20.07
2019-06-20T07:36:10.941Z,20.13
2019-06-20T07:38:39.157Z,20.19
2019-06-20T07:41:07.411Z,20.20
2019-06-20T07:43:35.624Z,20.15
2019-06-20T07:46:03.910Z,20.08
2019-06-20T07:48:32.129Z,20.00
2019-06-20T07:51:00.376Z,19.90
2019-06-20T07:53:28.606Z,19.86
2019-06-20T07:55:56.830Z,19.86
2019-06-20T07:58:25.062Z,19.96
2019-06-20T08:00:53.279Z,20.11
2019-06-20T08:03:21.611Z,20.26
2019-06-20T08:05:49.849Z,20.37
2019-06-20T08:08:18.120Z,20.45
2019-06-20T08:10:46.334Z,20.58
2019-06-20T08:13:14.546Z,20.86
2019-06-20T08:15:42.760Z,21.13
2019-06-20T08:18:10.989Z,21.26
2019-06-20T08:20:39.216Z,21.29
2019-06-20T08:23:07.422Z,21.27
2019-06-20T08:25:35.639Z,21.20
2019-06-20T08:28:04.818Z,21.18
2019-06-20T08:30:34.379Z,21.16
2019-06-20T08:33:07.629Z,21.16
2019-06-20T08:35:32.704Z,21.12
2019-06-20T08:38:03.311Z,21.02
2019-06-20T08:40:32.399Z,21.01
2019-06-20T08:43:01.959Z,20.95
2019-06-20T08:45:31.785Z,20.95
2019-06-20T08:48:00.188Z,20.98
2019-06-20T08:50:28.408Z,21.06
2019-06-20T08:52:58.011Z,21.08
2019-06-20T08:55:26.543Z,21.10
2019-06-20T08:57:56.361Z,21.10
2019-06-20T09:00:24.954Z,21.14
2019-06-20T09:02:55.006Z,21.30
2019-06-20T09:05:23.144Z,21.48
2019-06-20T09:07:51.426Z,21.61
2019-06-20T09:10:19.711Z,21.68
2019-06-20T09:12:47.910Z,21.78
2019-06-20T09:15:16.123Z,21.88
2019-06-20T09:17:44.350Z,22.14
2019-06-20T09:20:13.298Z,22.40
2019-06-20T09:22:41.501Z,22.61
2019-06-20T09:25:09.733Z,22.67
2019-06-20T09:27:37.945Z,22.58
2019-06-20T09:30:11.197Z,22.42
2019-06-20T09:32:39.619Z,22.22
2019-06-20T09:35:08.163Z,21.96
2019-06-20T09:37:36.428Z,21.72
2019-06-20T09:40:08.011Z,21.46
2019-06-20T09:42:36.957Z,21.27
2019-06-20T09:45:09.995Z,21.10
2019-06-20T09:47:38.212Z,20.96
2019-06-20T09:50:08.069Z,20.84
2019-06-20T09:52:36.284Z,20.83
2019-06-20T09:55:06.057Z,21.05
2019-06-20T09:57:34.355Z,21.31
2019-06-20T10:00:09.941Z,21.48
2019-06-20T10:02:32.864Z,21.54
2019-06-20T10:05:01.060Z,21.63
2019-06-20T10:07:29.274Z,21.80
2019-06-20T10:09:57.482Z,21.98
2019-06-20T10:12:25.776Z,22.13
2019-06-20T10:14:54.020Z,22.19
2019-06-20T10:17:22.228Z,22.15
2019-06-20T10:19:50.434Z,22.05
2019-06-20T10:22:18.781Z,21.89
2019-06-20T10:24:47.423Z,21.71
2019-06-20T10:27:15.727Z,21.60
2019-06-20T10:29:44.430Z,21.64
2019-06-20T10:32:13.990Z,21.74
2019-06-20T10:34:42.203Z,22.13
2019-06-20T10:37:10.431Z,22.60
2019-06-20T10:39:38.649Z,22.96
2019-06-20T10:42:06.859Z,23.17
2019-06-20T10:44:35.104Z,23.17
2019-06-20T10:47:03.408Z,23.11
2019-06-20T10:49:31.651Z,23.02
2019-06-20T10:51:59.861Z,22.97
2019-06-20T10:54:28.087Z,22.86
2019-06-20T10:56:56.276Z,22.78
2019-06-20T10:59:24.522Z,22.80
2019-06-20T11:01:52.723Z,22.98
2019-06-20T11:04:21.017Z,23.00
2019-06-20T11:06:49.632Z,22.96
2019-06-20T11:09:17.976Z,22.94
2019-06-20T11:11:47.107Z,23.17
2019-06-20T11:14:15.350Z,23.47
2019-06-20T11:16:45.122Z,23.62
2019-06-20T11:19:13.441Z,23.77
2019-06-20T11:21:41.695Z,23.83
2019-06-20T11:24:09.973Z,23.79
2019-06-20T11:26:39.343Z,23.74
2019-06-20T11:29:07.544Z,23.75
2019-06-20T11:31:37.479Z,23.84
2019-06-20T11:34:05.832Z,23.94
2019-06-20T11:36:34.055Z,24.14
2019-06-20T11:39:02.262Z,24.29
2019-06-20T11:41:30.472Z,24.42
2019-06-20T11:43:58.693Z,24.33
2019-06-20T11:46:26.898Z,24.29
2019-06-20T11:48:55.126Z,24.23
2019-06-20T11:51:23.366Z,24.08
2019-06-20T11:53:51.570Z,24.00
2019-06-20T11:56:19.790Z,23.96
2019-06-20T11:58:48.003Z,24.03
2019-06-20T12:01:16.246Z,24.21
2019-06-20T12:03:44.641Z,24.39
2019-06-20T12:06:12.887Z,24.45
2019-06-20T12:08:42.371Z,24.47
2019-06-20T12:11:10.729Z,24.48
2019-06-20T12:13:40.372Z,24.45
2019-06-20T12:16:08.692Z,24.34
2019-06-20T12:18:39.746Z,24.25
2019-06-20T12:21:06.833Z,24.13
2019-06-20T12:23:35.035Z,23.95
2019-06-20T12:26:03.263Z,23.72
2019-06-20T12:28:31.486Z,23.70
2019-06-20T12:30:59.700Z,23.92
2019-06-20T12:33:27.938Z,24.18
2019-06-20T12:35:56.144Z,23.88
2019-06-20T12:38:24.548Z,24.66
2019-06-20T12:40:52.752Z,24.66
2019-06-20T12:43:20.960Z,24.64
2019-06-20T12:45:49.573Z,24.65
2019-06-20T12:48:17.773Z,24.80
2019-06-20T12:50:47.513Z,24.75
2019-06-20T12:53:15.781Z,24.74
2019-06-20T12:55:45.627Z,24.73
2019-06-20T12:58:13.996Z,24.77
2019-06-20T13:00:43.618Z,24.92
2019-06-20T13:03:12.179Z,25.04
2019-06-20T13:05:41.850Z,24.92
2019-06-20T13:08:13.453Z,24.75
2019-06-20T13:10:40.442Z,24.42
2019-06-20T13:13:08.689Z,24.06
2019-06-20T13:15:37.663Z,23.76
2019-06-20T13:18:06.833Z,23.54
2019-06-20T13:20:35.057Z,23.47
2019-06-20T13:23:03.266Z,23.53
2019-06-20T13:25:31.478Z,23.65
2019-06-20T13:27:59.703Z,23.75
2019-06-20T13:30:27.916Z,23.84
2019-06-20T13:32:56.155Z,23.92
2019-06-20T13:35:24.381Z,24.09
2019-06-20T13:37:52.589Z,24.36
2019-06-20T13:40:20.820Z,24.57
2019-06-20T13:42:50.259Z,24.67
2019-06-20T13:45:23.181Z,24.91
2019-06-20T13:47:51.488Z,25.16
2019-06-20T13:50:20.162Z,25.30
2019-06-20T13:52:49.556Z,25.38
2019-06-20T13:55:18.359Z,25.49
2019-06-20T13:57:47.126Z,25.52
2019-06-20T14:00:17.272Z,25.46
2019-06-20T14:02:46.957Z,25.39
2019-06-20T14:05:15.680Z,25.30
2019-06-20T14:07:48.428Z,25.33
2019-06-20T14:10:14.042Z,25.33
2019-06-20T14:12:43.137Z,25.39
2019-06-20T14:15:12.360Z,25.56
2019-06-20T14:17:42.896Z,25.73
2019-06-20T14:20:10.543Z,25.78
2019-06-20T14:22:38.762Z,25.77
2019-06-20T14:25:07.058Z,25.77
2019-06-20T14:27:35.540Z,25.73
2019-06-20T14:30:06.517Z,25.57
2019-06-20T14:32:34.747Z,25.45
2019-06-20T14:35:02.947Z,25.43
2019-06-20T14:37:31.177Z,25.56
2019-06-20T14:39:59.453Z,25.62
2019-06-20T14:42:27.591Z,25.67
2019-06-20T14:44:56.642Z,25.82
2019-06-20T14:47:24.823Z,25.97
2019-06-20T14:49:53.058Z,26.09
2019-06-20T14:52:21.358Z,26.11
2019-06-20T14:54:49.917Z,26.14
2019-06-20T14:57:18.162Z,26.15
2019-06-20T14:59:46.966Z,26.22
2019-06-20T15:02:16.450Z,26.13
2019-06-20T15:04:46.082Z,26.01
2019-06-20T15:07:14.467Z,25.87
2019-06-20T15:09:42.677Z,25.76
2019-06-20T15:12:10.881Z,25.64
2019-06-20T15:14:39.109Z,25.58
2019-06-20T15:17:07.411Z,25.50
2019-06-20T15:19:35.608Z,25.39
2019-06-20T15:22:03.829Z,25.22
2019-06-20T15:24:32.086Z,25.02
2019-06-20T15:27:00.316Z,24.87
2019-06-20T15:29:28.510Z,24.72
2019-06-20T15:31:57.055Z,24.57
2019-06-20T15:34:25.384Z,24.42
2019-06-20T15:36:53.605Z,24.23
2019-06-20T15:39:22.184Z,24.05
2019-06-20T15:41:51.611Z,23.91
2019-06-20T15:44:19.933Z,23.71
2019-06-20T15:46:48.855Z,23.51
2019-06-20T15:49:18.147Z,23.31
2019-06-20T15:51:46.365Z,23.14
2019-06-20T15:54:14.572Z,22.97
2019-06-20T15:56:42.864Z,22.93
2019-06-20T15:59:11.134Z,23.00
2019-06-20T16:01:39.359Z,23.11
2019-06-20T16:04:07.567Z,23.21
2019-06-20T16:06:35.848Z,23.25
2019-06-20T16:09:08.388Z,23.22
2019-06-20T16:11:35.066Z,23.31
2019-06-20T16:14:03.262Z,23.29
2019-06-20T16:16:31.478Z,23.37
2019-06-20T16:18:59.750Z,23.40
2019-06-20T16:21:28.090Z,23.38
2019-06-20T16:23:56.323Z,23.36
2019-06-20T16:26:24.527Z,23.37
2019-06-20T16:28:52.738Z,23.36
2019-06-20T16:31:26.646Z,23.37
2019-06-20T16:33:50.892Z,23.34
2019-06-20T16:36:19.107Z,23.30
2019-06-20T16:38:47.320Z,23.22
2019-06-20T16:41:15.535Z,23.19
2019-06-20T16:43:43.732Z,23.09
2019-06-20T16:46:12.011Z,22.97
2019-06-20T16:48:40.245Z,22.87
2019-06-20T16:51:08.522Z,22.79
2019-06-20T16:53:36.766Z,22.75
2019-06-20T16:56:05.030Z,22.81
2019-06-20T16:58:33.233Z,22.95
2019-06-20T17:01:01.812Z,23.11
2019-06-20T17:03:41.086Z,23.23
2019-06-20T17:05:59.953Z,23.22
2019-06-20T17:08:28.207Z,23.08
2019-06-20T17:10:56.418Z,22.97
2019-06-20T17:13:24.633Z,22.92
2019-06-20T17:15:52.874Z,22.89
2019-06-20T17:18:21.083Z,22.82
2019-06-20T17:20:49.487Z,22.78
2019-06-20T17:23:17.758Z,22.80
2019-06-20T17:25:45.976Z,22.72
2019-06-20T17:28:14.205Z,22.62
2019-06-20T17:30:42.603Z,22.52
2019-06-20T17:33:10.843Z,22.43
2019-06-20T17:35:39.022Z,22.41
2019-06-20T17:38:07.317Z,22.42
2019-06-20T17:40:35.532Z,22.42
2019-06-20T17:43:03.756Z,22.41
2019-06-20T17:45:31.954Z,22.37
2019-06-20T17:48:00.162Z,22.26
2019-06-20T17:50:28.389Z,22.19
2019-06-20T17:52:56.596Z,22.14
2019-06-20T17:55:24.811Z,22.08
2019-06-20T17:57:53.013Z,22.09
2019-06-20T18:00:21.496Z,22.10
2019-06-20T18:02:49.690Z,22.10
2019-06-20T18:05:17.899Z,22.09
2019-06-20T18:07:46.108Z,22.10
2019-06-20T18:12:41.780Z,22.21
2019-06-20T18:15:10.251Z,22.32
2019-06-20T18:17:38.479Z,22.35
2019-06-20T18:20:07.242Z,22.34
2019-06-20T18:22:35.437Z,22.30
2019-06-20T18:25:04.308Z,22.28
2019-06-20T18:27:32.515Z,22.26
2019-06-20T18:30:00.724Z,22.20
2019-06-20T18:32:28.947Z,22.14
2019-06-20T18:35:01.949Z,22.04
2019-06-20T18:37:31.303Z,21.93
2019-06-20T18:39:57.045Z,21.82
2019-06-20T18:42:25.525Z,21.70
2019-06-20T18:44:53.825Z,21.61
2019-06-20T18:47:22.144Z,21.55
2019-06-20T18:49:50.386Z,21.51
2019-06-20T18:52:18.597Z,21.45
2019-06-20T18:54:46.814Z,21.38
2019-06-20T18:57:15.147Z,21.32
2019-06-20T18:59:43.374Z,21.26
2019-06-20T19:02:11.660Z,21.21
2019-06-20T19:04:47.872Z,21.15
2019-06-20T19:07:09.894Z,21.10
2019-06-20T19:09:38.107Z,21.06
2019-06-20T19:12:06.388Z,20.99
2019-06-20T19:14:34.590Z,20.95
2019-06-20T19:17:02.847Z,20.92
2019-06-20T19:19:31.025Z,20.93
2019-06-20T19:21:59.290Z,20.93
2019-06-20T19:24:27.549Z,20.95
2019-06-20T19:26:55.740Z,20.95
2019-06-20T19:29:23.961Z,20.95
2019-06-20T19:31:52.185Z,20.96
2019-06-20T19:34:20.409Z,20.96
2019-06-20T19:36:48.623Z,20.95
2019-06-20T19:39:16.829Z,20.92
2019-06-20T19:41:45.036Z,20.91
2019-06-20T19:44:13.254Z,20.88
2019-06-20T19:46:41.450Z,20.88
2019-06-20T19:49:09.694Z,20.88
2019-06-20T19:51:37.884Z,20.89
2019-06-20T19:54:06.097Z,20.91
2019-06-20T19:56:34.305Z,20.93
2019-06-20T19:59:02.516Z,20.89
2019-06-20T20:01:31.331Z,20.88
2019-06-20T20:03:59.554Z,20.87
2019-06-20T20:06:27.809Z,20.87
2019-06-20T20:08:56.026Z,20.84
2019-06-20T20:11:24.237Z,20.80
2019-06-20T20:13:52.508Z,20.74
2019-06-20T20:16:20.729Z,20.65
2019-06-20T20:18:48.960Z,20.57
2019-06-20T20:21:17.184Z,20.49
2019-06-20T20:23:45.524Z,20.46
2019-06-20T20:26:13.757Z,20.42
2019-06-20T20:28:42.014Z,20.40
2019-06-20T20:31:10.229Z,20.35
2019-06-20T20:33:38.446Z,20.27
2019-06-20T20:36:06.796Z,20.14
2019-06-20T20:38:35.061Z,20.04
2019-06-20T20:41:03.257Z,19.92
2019-06-20T20:43:31.480Z,19.81
2019-06-20T20:45:59.709Z,19.69
2019-06-20T20:48:27.929Z,19.62
2019-06-20T20:50:56.176Z,19.53
2019-06-20T20:53:24.395Z,19.47
2019-06-20T20:55:52.610Z,19.40
2019-06-20T20:58:20.842Z,19.33
2019-06-20T21:00:58.329Z,19.29
2019-06-20T21:03:26.546Z,19.21
2019-06-20T21:05:54.763Z,19.14
2019-06-20T21:08:22.974Z,19.02
2019-06-20T21:10:51.216Z,18.89
2019-06-20T21:13:19.424Z,18.79
2019-06-20T21:15:47.645Z,18.72
2019-06-20T21:18:16.056Z,18.65
2019-06-20T21:20:44.336Z,18.60
2019-06-20T21:23:12.542Z,18.54
2019-06-20T21:25:40.841Z,18.50
2019-06-20T21:28:09.053Z,18.43
2019-06-20T21:30:37.267Z,18.32
2019-06-20T21:33:05.482Z,18.30
2019-06-20T21:35:33.718Z,18.29
2019-06-20T21:38:01.952Z,18.27
2019-06-20T21:40:30.152Z,18.22
2019-06-20T21:42:58.369Z,18.16
2019-06-20T21:45:26.589Z,18.11
2019-06-20T21:47:54.816Z,18.11
2019-06-20T21:50:23.024Z,18.07
2019-06-20T21:52:51.247Z,18.01
2019-06-20T21:55:19.460Z,17.98
2019-06-20T21:57:47.670Z,17.96
2019-06-20T22:00:40.085Z,17.95
2019-06-20T22:03:08.293Z,17.93
2019-06-20T22:05:36.490Z,17.89
2019-06-20T22:08:05.285Z,17.87
2019-06-20T22:10:33.662Z,17.82
2019-06-20T22:13:01.872Z,17.77
2019-06-20T22:15:30.157Z,17.70
2019-06-20T22:17:58.371Z,17.60
2019-06-20T22:20:26.650Z,17.60
2019-06-20T22:22:54.877Z,17.57
2019-06-20T22:25:23.103Z,17.53
2019-06-20T22:27:51.302Z,17.50
2019-06-20T22:30:21.220Z,17.48
2019-06-20T22:32:49.425Z,17.46
2019-06-20T22:35:17.663Z,17.44
2019-06-20T22:37:45.868Z,17.42
2019-06-20T22:40:14.097Z,17.38
2019-06-20T22:42:42.327Z,17.35
2019-06-20T22:45:10.560Z,17.31
2019-06-20T22:47:41.222Z,17.25
2019-06-20T22:50:08.760Z,17.25
2019-06-20T22:52:36.994Z,17.25
2019-06-20T22:55:06.088Z,17.23
2019-06-20T22:57:34.312Z,17.24
2019-06-20T23:00:02.850Z,17.22
2019-06-20T23:02:31.048Z,17.19
2019-06-20T23:04:59.276Z,17.17
2019-06-20T23:07:27.533Z,17.16
2019-06-20T23:10:09.343Z,17.13
2019-06-20T23:12:25.639Z,17.11
2019-06-20T23:14:53.845Z,17.08
2019-06-20T23:17:22.108Z,17.06
2019-06-20T23:19:50.329Z,17.05
2019-06-20T23:22:18.638Z,17.03
2019-06-20T23:24:46.948Z,17.02
2019-06-20T23:27:15.167Z,16.99
2019-06-20T23:29:43.515Z,16.94
2019-06-20T23:32:11.710Z,16.89
2019-06-20T23:34:39.924Z,16.87
2019-06-20T23:37:12.620Z,16.83
2019-06-20T23:39:38.055Z,16.79
2019-06-20T23:42:06.317Z,16.77
2019-06-20T23:44:34.517Z,16.76
2019-06-20T23:47:02.720Z,16.73
2019-06-20T23:49:30.928Z,16.71
2019-06-20T23:52:09.720Z,16.70
2019-06-20T23:54:46.688Z,16.68
2019-06-20T23:57:14.896Z,16.64
2019-06-20T23:59:43.119Z,16.60
